createdAt,value
2019-02-17T00:01:44.462Z,51.80
2019-02-17T00:04:45.978Z,51.70
2019-02-17T00:07:48.928Z,51.80
2019-02-17T00:10:50.717Z,51.80
2019-02-17T00:13:52.231Z,51.70
2019-02-17T00:16:53.788Z,51.80
2019-02-17T00:19:55.317Z,51.70
2019-02-17T00:22:56.894Z,51.70
2019-02-17T00:25:58.912Z,51.80
2019-02-17T00:29:00.437Z,51.70
2019-02-17T00:32:02.014Z,51.70
2019-02-17T00:35:03.710Z,51.70
2019-02-17T00:38:05.362Z,51.70
2019-02-17T00:41:06.853Z,51.70
2019-02-17T00:44:08.415Z,51.60
2019-02-17T00:47:09.979Z,51.80
2019-02-17T00:50:12.025Z,51.80
2019-02-17T00:53:13.768Z,51.70
2019-02-17T00:56:15.194Z,51.80
2019-02-17T00:59:16.700Z,51.70
2019-02-17T01:02:18.365Z,51.70
2019-02-17T01:05:19.980Z,51.70
2019-02-17T01:08:21.510Z,51.80
2019-02-17T01:11:23.004Z,51.70
2019-02-17T01:14:25.095Z,51.70
2019-02-17T01:17:26.743Z,51.80
2019-02-17T01:20:28.463Z,51.80
2019-02-17T01:23:30.447Z,51.90
2019-02-17T01:26:32.108Z,51.80
2019-02-17T01:29:33.624Z,51.80
2019-02-17T01:32:35.526Z,51.70
2019-02-17T01:35:37.026Z,51.80
2019-02-17T01:38:38.490Z,51.70
2019-02-17T01:41:40.094Z,51.80
2019-02-17T01:44:42.265Z,51.80
2019-02-17T01:47:44.073Z,51.90
2019-02-17T01:50:46.015Z,51.80
2019-02-17T01:53:47.652Z,51.80
2019-02-17T01:56:49.168Z,51.90
2019-02-17T01:59:50.671Z,51.80
2019-02-17T02:02:52.410Z,51.80
2019-02-17T02:05:53.982Z,51.90
2019-02-17T02:08:55.435Z,51.90
2019-02-17T02:11:56.970Z,51.90
2019-02-17T02:14:58.518Z,51.90
2019-02-17T02:17:59.954Z,51.90
2019-02-17T02:21:01.461Z,51.90
2019-02-17T02:24:02.906Z,51.80
2019-02-17T02:27:04.817Z,51.90
2019-02-17T02:30:09.544Z,51.80
2019-02-17T02:33:11.453Z,51.80
2019-02-17T02:36:12.917Z,51.80
2019-02-17T02:39:14.414Z,51.90
2019-02-17T02:42:15.938Z,51.80
2019-02-17T02:45:17.372Z,51.80
2019-02-17T02:48:18.952Z,51.90
2019-02-17T02:51:20.409Z,51.90
2019-02-17T02:54:22.095Z,52.00
2019-02-17T02:57:23.737Z,52.00
2019-02-17T03:00:25.203Z,51.90
2019-02-17T03:03:26.819Z,51.80
2019-02-17T03:07:02.301Z,51.80
2019-02-17T03:10:03.792Z,51.80
2019-02-17T03:13:05.314Z,51.80
2019-02-17T03:16:07.234Z,51.70
2019-02-17T03:19:08.740Z,51.70
2019-02-17T03:22:10.268Z,51.60
2019-02-17T03:25:11.768Z,51.70
2019-02-17T03:28:13.233Z,51.70
2019-02-17T03:31:14.665Z,51.80
2019-02-17T03:34:16.092Z,51.80
2019-02-17T03:37:17.606Z,51.70
2019-02-17T03:40:19.526Z,51.80
2019-02-17T03:43:21.115Z,51.90
2019-02-17T03:46:22.681Z,51.80
2019-02-17T03:49:24.128Z,51.80
2019-02-17T03:52:25.601Z,51.80
2019-02-17T03:55:27.025Z,51.90
2019-02-17T03:58:29.080Z,51.90
2019-02-17T04:01:30.599Z,51.90
2019-02-17T04:04:32.037Z,51.90
2019-02-17T04:07:33.438Z,51.90
2019-02-17T04:10:34.899Z,52.00
2019-02-17T04:13:36.308Z,51.90
2019-02-17T04:16:37.734Z,51.90
2019-02-17T04:19:39.207Z,51.80
2019-02-17T04:22:40.663Z,51.80
2019-02-17T04:25:42.193Z,51.90
2019-02-17T04:28:43.902Z,51.80
2019-02-17T04:31:45.350Z,51.90
2019-02-17T04:34:46.894Z,51.90
2019-02-17T04:37:48.413Z,52.00
2019-02-17T04:40:50.063Z,52.00
2019-02-17T04:43:51.935Z,52.00
2019-02-17T04:46:53.471Z,52.00
2019-02-17T04:49:55.074Z,51.90
2019-02-17T04:52:56.534Z,51.90
2019-02-17T04:55:58.010Z,52.00
2019-02-17T04:58:59.431Z,51.90
2019-02-17T05:02:00.864Z,51.90
2019-02-17T05:05:02.323Z,51.80
2019-02-17T05:08:03.743Z,51.80
2019-02-17T05:11:05.626Z,51.80
2019-02-17T05:14:07.088Z,51.80
2019-02-17T05:17:07.868Z,51.90
2019-02-17T05:20:09.786Z,51.80
2019-02-17T05:23:11.215Z,51.70
2019-02-17T05:26:12.790Z,51.70
2019-02-17T05:29:14.181Z,51.60
2019-02-17T05:32:15.691Z,51.60
2019-02-17T05:35:17.174Z,51.70
2019-02-17T05:38:18.619Z,51.60
2019-02-17T05:41:20.067Z,51.60
2019-02-17T05:44:21.466Z,51.60
2019-02-17T05:47:22.881Z,51.70
2019-02-17T05:50:24.268Z,51.70
2019-02-17T05:53:25.709Z,52.20
2019-02-17T05:56:27.192Z,51.60
2019-02-17T05:59:28.531Z,51.70
2019-02-17T06:02:30.010Z,52.20
2019-02-17T06:05:31.746Z,51.60
2019-02-17T06:08:33.320Z,51.60
2019-02-17T06:11:34.831Z,51.60
2019-02-17T06:14:36.279Z,51.60
2019-02-17T06:17:38.874Z,51.60
2019-02-17T06:20:40.348Z,51.60
2019-02-17T06:23:42.134Z,51.70
2019-02-17T06:26:43.617Z,51.70
2019-02-17T06:29:45.148Z,51.60
2019-02-17T06:32:46.561Z,51.60
2019-02-17T06:35:48.171Z,51.60
2019-02-17T06:38:49.647Z,51.70
2019-02-17T06:41:51.194Z,52.10
2019-02-17T06:44:52.607Z,51.50
2019-02-17T06:47:54.048Z,51.60
2019-02-17T06:50:55.882Z,51.50
2019-02-17T06:53:57.494Z,51.60
2019-02-17T06:57:11.401Z,51.50
2019-02-17T07:00:23.423Z,51.50
2019-02-17T07:03:24.954Z,51.30
2019-02-17T07:06:48.669Z,51.40
2019-02-17T07:09:50.172Z,51.30
2019-02-17T07:12:51.677Z,51.30
2019-02-17T07:15:53.156Z,51.40
2019-02-17T07:18:54.689Z,51.30
2019-02-17T07:21:56.154Z,51.30
2019-02-17T07:24:58.292Z,51.30
2019-02-17T07:27:59.874Z,51.20
2019-02-17T07:31:02.455Z,51.10
2019-02-17T07:34:04.545Z,51.10
2019-02-17T07:37:06.199Z,51.30
2019-02-17T07:40:08.110Z,51.30
2019-02-17T07:43:09.705Z,51.30
2019-02-17T07:46:11.293Z,51.40
2019-02-17T07:49:12.894Z,51.60
2019-02-17T07:52:14.383Z,51.50
2019-02-17T07:55:16.568Z,52.00
2019-02-17T07:58:18.094Z,52.00
2019-02-17T08:01:19.700Z,52.10
2019-02-17T08:04:21.332Z,52.10
2019-02-17T08:07:22.910Z,52.20
2019-02-17T08:10:24.555Z,52.40
2019-02-17T08:13:26.129Z,52.40
2019-02-17T08:16:28.197Z,52.50
2019-02-17T08:19:29.703Z,52.50
2019-02-17T08:22:31.339Z,52.30
2019-02-17T08:25:33.004Z,52.40
2019-02-17T08:28:34.713Z,52.40
2019-02-17T08:31:39.083Z,52.30
2019-02-17T08:35:33.534Z,52.50
2019-02-17T08:38:35.366Z,52.60
2019-02-17T08:41:36.912Z,52.80
2019-02-17T08:44:38.608Z,53.00
2019-02-17T08:47:40.323Z,52.90
2019-02-17T08:50:42.069Z,53.10
2019-02-17T08:53:43.666Z,53.20
2019-02-17T08:56:45.351Z,53.20
2019-02-17T08:59:47.489Z,53.20
2019-02-17T09:03:14.070Z,53.10
2019-02-17T09:06:15.792Z,53.10
2019-02-17T09:09:17.863Z,53.20
2019-02-17T09:12:19.532Z,53.20
2019-02-17T09:15:22.145Z,53.30
2019-02-17T09:18:25.106Z,53.40
2019-02-17T09:21:27.390Z,53.50
2019-02-17T09:24:29.267Z,53.60
2019-02-17T09:27:31.143Z,53.70
2019-02-17T09:30:34.646Z,53.70
2019-02-17T09:33:36.376Z,53.80
2019-02-17T09:36:38.515Z,53.80
2019-02-17T09:39:40.327Z,53.80
2019-02-17T09:42:42.184Z,54.00
2019-02-17T09:45:44.027Z,53.90
2019-02-17T09:48:46.117Z,54.10
2019-02-17T09:51:48.019Z,54.00
2019-02-17T09:54:49.824Z,54.00
2019-02-17T09:57:51.417Z,54.00
2019-02-17T10:00:53.302Z,54.00
2019-02-17T10:03:55.168Z,53.80
2019-02-17T10:06:56.986Z,53.80
2019-02-17T10:09:58.783Z,53.90
2019-02-17T10:13:01.380Z,53.80
2019-02-17T10:16:03.639Z,53.70
2019-02-17T10:19:05.735Z,53.70
2019-02-17T10:22:07.638Z,53.50
2019-02-17T10:25:09.786Z,53.60
2019-02-17T10:28:11.835Z,53.40
2019-02-17T10:31:13.729Z,53.40
2019-02-17T10:34:15.685Z,53.30
2019-02-17T10:37:17.532Z,53.30
2019-02-17T10:40:19.750Z,53.20
2019-02-17T10:43:21.692Z,53.20
2019-02-17T10:46:23.513Z,53.10
2019-02-17T10:49:25.312Z,52.50
2019-02-17T10:52:27.165Z,52.50
2019-02-17T10:55:28.805Z,52.20
2019-02-17T10:58:30.427Z,52.20
2019-02-17T11:01:32.505Z,52.10
2019-02-17T11:04:35.109Z,52.10
2019-02-17T11:07:36.804Z,52.10
2019-02-17T11:10:38.336Z,51.90
2019-02-17T11:13:40.263Z,51.70
2019-02-17T11:16:42.523Z,51.50
2019-02-17T11:19:44.229Z,51.40
2019-02-17T11:22:46.204Z,51.00
2019-02-17T11:25:47.989Z,50.60
2019-02-17T11:30:37.871Z,50.20
2019-02-17T11:33:35.935Z,49.80
2019-02-17T11:36:37.523Z,49.60
2019-02-17T11:39:39.469Z,47.90
2019-02-17T11:42:41.070Z,47.30
2019-02-17T11:45:42.716Z,48.40
2019-02-17T11:48:44.506Z,48.90
2019-02-17T11:51:46.064Z,49.10
2019-02-17T11:54:50.929Z,48.80
2019-02-17T11:57:52.658Z,48.50
2019-02-17T12:00:54.226Z,47.90
2019-02-17T12:03:55.706Z,47.20
2019-02-17T12:06:57.287Z,46.90
2019-02-17T12:09:58.873Z,46.70
2019-02-17T12:13:00.744Z,46.80
2019-02-17T12:16:02.419Z,46.50
2019-02-17T12:19:03.865Z,46.40
2019-02-17T12:22:17.295Z,46.20
2019-02-17T12:25:40.906Z,45.90
2019-02-17T12:28:57.831Z,45.70
2019-02-17T12:31:59.360Z,45.90
2019-02-17T12:35:01.316Z,45.60
2019-02-17T12:38:04.140Z,45.60
2019-02-17T12:41:06.161Z,45.40
2019-02-17T12:44:07.645Z,45.30
2019-02-17T12:47:09.205Z,45.00
2019-02-17T12:50:13.812Z,44.70
2019-02-17T12:53:15.773Z,44.00
2019-02-17T12:56:17.536Z,44.10
2019-02-17T12:59:19.277Z,43.80
2019-02-17T13:02:20.822Z,43.50
2019-02-17T13:05:23.264Z,43.30
2019-02-17T13:08:24.970Z,43.10
2019-02-17T13:11:26.453Z,42.90
2019-02-17T13:14:28.467Z,42.70
2019-02-17T13:17:29.921Z,42.30
2019-02-17T13:20:34.543Z,42.00
2019-02-17T13:23:36.497Z,41.90
2019-02-17T13:52:24.936Z,39.70
2019-02-17T13:55:52.076Z,39.40
2019-02-17T13:59:26.525Z,39.40
2019-02-17T14:02:28.001Z,39.40
2019-02-17T14:05:29.947Z,39.40
2019-02-17T14:08:31.566Z,39.30
2019-02-17T14:11:33.076Z,39.30
2019-02-17T14:14:35.075Z,39.20
2019-02-17T14:17:36.593Z,39.10
2019-02-17T14:20:38.063Z,39.00
2019-02-17T14:23:40.075Z,38.90
2019-02-17T14:26:41.647Z,39.10
2019-02-17T14:29:43.258Z,38.80
2019-02-17T14:32:44.831Z,38.80
2019-02-17T14:35:46.334Z,38.60
2019-02-17T14:38:48.007Z,38.50
2019-02-17T14:41:49.617Z,38.50
2019-02-17T14:44:51.129Z,38.40
2019-02-17T14:47:52.617Z,38.40
2019-02-17T14:50:54.187Z,39.00
2019-02-17T14:53:55.712Z,38.30
2019-02-17T14:56:57.186Z,38.00
2019-02-17T14:59:59.058Z,38.00
2019-02-17T15:03:00.520Z,37.80
2019-02-17T15:06:02.212Z,37.60
2019-02-17T15:09:05.046Z,37.50
2019-02-17T15:12:08.152Z,37.40
2019-02-17T15:15:10.304Z,37.30
2019-02-17T15:18:11.878Z,37.00
2019-02-17T15:21:13.359Z,36.90
2019-02-17T15:24:15.205Z,36.50
2019-02-17T15:27:16.681Z,36.20
2019-02-17T15:30:18.627Z,36.10
2019-02-17T15:33:20.555Z,35.70
2019-02-17T15:36:22.083Z,35.40
2019-02-17T15:39:23.651Z,35.00
2019-02-17T15:42:25.258Z,34.80
2019-02-17T15:45:26.872Z,34.60
2019-02-17T15:48:28.402Z,34.20
2019-02-17T15:51:30.051Z,33.90
2019-02-17T15:54:31.574Z,33.70
2019-02-17T15:57:33.064Z,33.50
2019-02-17T16:00:34.533Z,33.10
2019-02-17T16:03:36.303Z,32.80
2019-02-17T16:06:37.845Z,32.40
2019-02-17T16:09:39.315Z,32.10
2019-02-17T16:12:40.992Z,31.70
2019-02-17T16:15:42.522Z,31.50
2019-02-17T16:18:44.006Z,31.40
2019-02-17T16:21:45.936Z,31.40
2019-02-17T16:24:47.574Z,31.30
2019-02-17T16:27:49.082Z,32.00
2019-02-17T16:30:50.910Z,32.30
2019-02-17T16:33:52.447Z,32.80
2019-02-17T16:36:53.955Z,32.80
2019-02-17T16:39:55.482Z,32.70
2019-02-17T16:42:56.989Z,33.80
2019-02-17T16:45:58.500Z,33.70
2019-02-17T16:48:59.996Z,34.50
2019-02-17T16:52:01.901Z,34.30
2019-02-17T16:55:03.431Z,34.10
2019-02-17T16:58:05.073Z,34.30
2019-02-17T17:01:07.313Z,34.70
2019-02-17T17:04:08.901Z,35.00
2019-02-17T17:07:10.930Z,35.20
2019-02-17T17:10:12.583Z,35.40
2019-02-17T17:13:14.116Z,36.00
2019-02-17T17:16:17.339Z,36.20
2019-02-17T17:19:20.023Z,37.00
2019-02-17T17:22:21.778Z,36.60
2019-02-17T17:25:23.496Z,36.80
2019-02-17T17:28:25.936Z,36.90
2019-02-17T17:31:27.619Z,37.20
2019-02-17T17:34:29.434Z,37.40
2019-02-17T17:37:32.026Z,37.60
2019-02-17T17:40:33.570Z,37.80
2019-02-17T17:43:35.610Z,38.10
2019-02-17T17:46:37.405Z,38.30
2019-02-17T17:49:39.180Z,38.50
2019-02-17T17:52:40.976Z,38.70
2019-02-17T17:55:42.493Z,38.80
2019-02-17T17:58:44.482Z,39.00
2019-02-17T18:01:46.148Z,39.10
2019-02-17T18:04:48.027Z,39.40
2019-02-17T18:07:49.746Z,39.70
2019-02-17T18:10:51.485Z,39.70
2019-02-17T18:13:53.062Z,40.00
2019-02-17T18:16:54.926Z,39.90
2019-02-17T18:19:56.525Z,40.10
2019-02-17T18:22:58.180Z,40.30
2019-02-17T18:26:00.105Z,40.50
2019-02-17T18:29:01.799Z,40.70
2019-02-17T18:32:04.564Z,40.90
2019-02-17T18:35:06.751Z,41.20
2019-02-17T18:38:08.814Z,41.50
2019-02-17T18:41:10.360Z,41.80
2019-02-17T18:44:48.668Z,42.30
2019-02-17T18:47:58.906Z,42.40
2019-02-17T18:51:00.643Z,42.90
2019-02-17T18:54:05.173Z,43.20
2019-02-17T18:57:17.865Z,43.50
2019-02-17T19:00:23.133Z,43.60
2019-02-17T19:03:34.745Z,43.90
2019-02-17T19:06:35.486Z,44.10
2019-02-17T19:14:17.281Z,44.40
2019-02-17T19:36:07.124Z,45.60
2019-02-17T19:39:18.026Z,45.80
2019-02-17T19:42:28.298Z,46.00
2019-02-17T19:45:40.165Z,46.10
2019-02-17T19:48:44.529Z,46.20
2019-02-17T19:51:54.099Z,46.30
2019-02-17T19:55:19.948Z,46.40
2019-02-17T19:58:25.973Z,46.50
2019-02-17T20:01:35.965Z,46.60
2019-02-17T20:05:08.742Z,46.70
2019-02-17T20:08:12.139Z,46.80
2019-02-17T20:11:21.094Z,46.90
2019-02-17T20:14:23.020Z,46.90
2019-02-17T20:17:37.349Z,47.00
2019-02-17T20:20:46.031Z,47.00
2019-02-17T20:23:58.933Z,47.10
2019-02-17T20:27:08.261Z,47.20
2019-02-17T20:30:11.418Z,47.20
2019-02-17T20:33:19.993Z,47.30
2019-02-17T20:36:22.950Z,47.40
2019-02-17T20:39:25.852Z,47.50
2019-02-17T20:42:33.196Z,47.40
2019-02-17T20:45:42.266Z,47.50
2019-02-17T20:49:03.856Z,47.50
2019-02-17T20:52:19.667Z,47.60
2019-02-17T20:55:38.739Z,47.60
2019-02-17T20:58:50.049Z,47.70
2019-02-17T21:02:01.345Z,47.80
2019-02-17T21:05:06.598Z,47.90
2019-02-17T21:08:11.361Z,47.90
2019-02-17T21:11:15.040Z,47.90
2019-02-17T21:14:19.949Z,47.90
2019-02-17T21:17:21.756Z,47.90
2019-02-17T21:20:23.339Z,47.90
2019-02-17T21:23:32.235Z,48.00
2019-02-17T21:26:42.034Z,48.00
2019-02-17T21:29:46.235Z,48.00
2019-02-17T21:32:51.080Z,48.10
2019-02-17T21:36:08.664Z,48.10
2019-02-17T21:39:21.341Z,48.10
2019-02-17T21:42:35.412Z,48.10
2019-02-17T21:45:47.676Z,48.10
2019-02-17T21:48:55.816Z,48.20
2019-02-17T21:52:23.258Z,48.30
2019-02-17T21:55:29.274Z,48.30
2019-02-17T21:58:44.141Z,48.30
2019-02-17T22:01:52.396Z,48.30
2019-02-17T22:05:03.474Z,47.90
2019-02-17T22:08:16.787Z,48.30
2019-02-17T22:11:49.401Z,48.30
2019-02-17T22:15:07.149Z,48.40
2019-02-17T22:18:22.399Z,48.30
2019-02-17T22:21:36.365Z,48.40
2019-02-17T22:24:44.372Z,48.30
2019-02-17T22:27:52.128Z,48.40
2019-02-17T22:31:05.974Z,48.50
2019-02-17T22:34:13.146Z,48.50
2019-02-17T22:37:17.630Z,48.50
2019-02-17T22:40:28.774Z,48.50
2019-02-17T22:43:42.291Z,48.50
2019-02-17T22:47:01.610Z,48.50
2019-02-17T22:50:09.225Z,48.50
2019-02-17T22:53:21.502Z,48.50
2019-02-17T22:56:39.938Z,48.50
2019-02-17T22:59:46.267Z,48.60
2019-02-17T23:02:53.282Z,48.60
2019-02-17T23:06:00.633Z,48.60
2019-02-17T23:09:10.179Z,48.60
2019-02-17T23:12:22.751Z,48.60
2019-02-17T23:15:32.987Z,48.60
2019-02-17T23:18:37.434Z,48.70
2019-02-17T23:21:41.421Z,48.60
2019-02-17T23:24:58.232Z,48.60
2019-02-17T23:28:07.950Z,48.70
2019-02-17T23:31:13.277Z,48.70
2019-02-17T23:34:14.806Z,48.60
2019-02-17T23:37:20.442Z,48.80
2019-02-17T23:40:29.967Z,48.80
2019-02-17T23:43:39.913Z,48.90
2019-02-17T23:46:47.126Z,49.00
2019-02-17T23:49:53.935Z,49.00
2019-02-17T23:52:55.572Z,49.00
2019-02-17T23:55:57.093Z,49.00
2019-02-17T23:58:58.641Z,49.10
